Terminal Aerodrome Forecast
Issued by NWS Spokane, WA

Home | Current Version | Previous Version | Text Only | Print | Product List | Glossary On
Versions: 1 2 3 4 5 6 7 8 9 10 11 12 13 14 15 16 17 18 19 20 21 22 23 24 25 26 27 28 29 30 31 32 33 34 35 36 37 38 39 40 41 42 43 44 45 46 47 48 49 50
000
FTUS46 KOTX 182339
TAFGEG
TAF
KGEG 182339Z 1900/1924 12009KT P6SM FEW020 BKN050 OVC100
     FM190300 12011KT P6SM -RA SCT020 OVC040
     FM190600 12009KT 6SM -RA BR SCT015 OVC025
     FM191300 19009KT 4SM -RA BR OVC012
     FM191500 19009KT 3SM -RA BR OVC006
     FM191800 19009KT 3SM BR OVC006=

USA.gov is the U.S. government's official web portal to all federal, state and local government web resources and services.